PWSweather.com
Personal Weather Stations
Station Observations
KNVELKO7
Elko, NV 89801

Elko, NV 89801

Lat: 40.963233, Lon: -115.592836

Elevation: 5230

Station Type: WS-2812

High Low Average
Temperature 95.9°F35.5°F 40.1°F4.5°F 68.4°F20.2°F
Dew Point 42.1°F5.6°F 14.7°F-9.6°F 27.2°F-2.7°F
Winds 14.4 mph WSW23.2 mph WSW Calm Calm 4.0 mph 6.4 mph
Wind Gusts 18.1 mph29.1 mph -- 6.2 mph10.0 mph
Humidity 43% 12% 24%
Pressure 30.23 in1023.70 in 30.11 in1019.60 in -
Precipitation 0.00 in0.00 in - -
Hour Temp Dew Point Humidity Winds Wind Gusts Pressure Precip Precip Rate Daily Precip Total
12:01 AM 52.7°F11.5°C 16.6°F-8.6°C 24% 1.5 mph SE2.4 kmh SE 3.8 mph6.1 kmh 30.11 in1019.6 mb 0.00 in0.0 mm 0.00 in0.0 mm 0.00 in0.0 mm
12:05 AM 52.6°F11.4°C 16.4°F-8.7°C 24% 1.1 mph SE1.8 kmh SE 3.8 mph6.1 kmh 30.11 in1019.6 mb 0.00 in0.0 mm 0.00 in0.0 mm 0.00 in0.0 mm
12:10 AM 52.2°F11.2°C 16.1°F-8.8°C 24% 1.7 mph ESE2.7 kmh ESE 2.5 mph4.0 kmh 30.11 in1019.6 mb 0.00 in0.0 mm 0.00 in0.0 mm 0.00 in0.0 mm
12:15 AM 51.8°F11.0°C 15.9°F-8.9°C 24% 1.8 mph N2.9 kmh N 2.5 mph4.0 kmh 30.12 in1020.0 mb 0.00 in0.0 mm 0.00 in0.0 mm 0.00 in0.0 mm
12:21 AM 51.1°F10.6°C 15.2°F-9.3°C 24% 6.0 mph NNE9.7 kmh NNE 6.7 mph10.8 kmh 30.12 in1020.0 mb 0.00 in0.0 mm 0.00 in0.0 mm 0.00 in0.0 mm
12:26 AM 51.1°F10.6°C 16.1°F-8.8°C 25% 3.9 mph NNE6.3 kmh NNE 6.7 mph10.8 kmh 30.12 in1020.0 mb 0.00 in0.0 mm 0.00 in0.0 mm 0.00 in0.0 mm
12:31 AM 51.5°F10.8°C 17.4°F-8.1°C 26% 4.6 mph NE7.4 kmh NE 4.7 mph7.6 kmh 30.12 in1020.0 mb 0.00 in0.0 mm 0.00 in0.0 mm 0.00 in0.0 mm
12:36 AM 51.8°F11.0°C 16.7°F-8.5°C 25% 1.1 mph NE1.8 kmh NE 4.7 mph7.6 kmh 30.12 in1020.0 mb 0.00 in0.0 mm 0.00 in0.0 mm 0.00 in0.0 mm
12:41 AM 51.7°F10.9°C 16.6°F-8.6°C 25% Calm Calm 4.7 mph7.6 kmh 30.12 in1020.0 mb 0.00 in0.0 mm 0.00 in0.0 mm 0.00 in0.0 mm
12:46 AM 51.1°F10.6°C 15.2°F-9.3°C 24% 1.9 mph NNE3.1 kmh NNE 2.7 mph4.3 kmh 30.12 in1020.0 mb 0.00 in0.0 mm 0.00 in0.0 mm 0.00 in0.0 mm
12:51 AM 50.8°F10.4°C 15.9°F-8.9°C 25% 0.7 mph E1.1 kmh E 2.7 mph4.3 kmh 30.12 in1020.0 mb 0.00 in0.0 mm 0.00 in0.0 mm 0.00 in0.0 mm
12:56 AM 50.6°F10.3°C 16.6°F-8.6°C 26% 0.9 mph NNE1.4 kmh NNE 1.1 mph1.8 kmh 30.12 in1020.0 mb 0.00 in0.0 mm 0.00 in0.0 mm 0.00 in0.0 mm
01:00 AM 50.2°F10.1°C 15.4°F-9.2°C 25% Calm Calm 1.1 mph1.8 kmh 30.12 in1020.0 mb 0.00 in0.0 mm 0.00 in0.0 mm 0.00 in0.0 mm
01:05 AM 49.7°F9.8°C 15.0°F-9.4°C 25% 1.8 mph NE2.9 kmh NE 1.8 mph2.9 kmh 30.13 in1020.3 mb 0.00 in0.0 mm 0.00 in0.0 mm 0.00 in0.0 mm
01:11 AM 49.1°F9.5°C 15.4°F-9.2°C 26% 1.9 mph ESE3.1 kmh ESE 2.2 mph3.5 kmh 30.12 in1020.0 mb 0.00 in0.0 mm 0.00 in0.0 mm 0.00 in0.0 mm
01:16 AM 48.6°F9.2°C 15.8°F-9.0°C 27% Calm Calm 2.2 mph3.5 kmh 30.13 in1020.3 mb 0.00 in0.0 mm 0.00 in0.0 mm 0.00 in0.0 mm
01:21 AM 48.2°F9.0°C 15.6°F-9.1°C 27% 1.2 mph NE1.9 kmh NE 1.3 mph2.1 kmh 30.12 in1020.0 mb 0.00 in0.0 mm 0.00 in0.0 mm 0.00 in0.0 mm
01:26 AM 48.1°F8.9°C 15.4°F-9.2°C 27% 2.0 mph 3.2 kmh 2.2 mph3.5 kmh 30.12 in1020.0 mb 0.00 in0.0 mm 0.00 in0.0 mm 0.00 in0.0 mm
01:31 AM 47.9°F8.8°C 16.2°F-8.8°C 28% 1.6 mph 2.6 kmh 2.2 mph3.5 kmh 30.13 in1020.3 mb 0.00 in0.0 mm 0.00 in0.0 mm 0.00 in0.0 mm
01:36 AM 47.9°F8.8°C 16.2°F-8.8°C 28% 0.4 mph 0.6 kmh 1.8 mph2.9 kmh 30.13 in1020.3 mb 0.00 in0.0 mm 0.00 in0.0 mm 0.00 in0.0 mm
01:41 AM 47.9°F8.8°C 17.1°F-8.3°C 29% Calm Calm 1.1 mph1.8 kmh 30.13 in1020.3 mb 0.00 in0.0 mm 0.00 in0.0 mm 0.00 in0.0 mm
01:46 AM 47.9°F8.8°C 17.1°F-8.3°C 29% Calm Calm -- 30.13 in1020.3 mb 0.00 in0.0 mm 0.00 in0.0 mm 0.00 in0.0 mm
01:51 AM 47.7°F8.7°C 16.9°F-8.4°C 29% Calm Calm -- 30.13 in1020.3 mb 0.00 in0.0 mm 0.00 in0.0 mm 0.00 in0.0 mm
01:56 AM 47.3°F8.5°C 15.7°F-9.1°C 28% 1.5 mph 2.4 kmh 1.6 mph2.6 kmh 30.13 in1020.3 mb 0.00 in0.0 mm 0.00 in0.0 mm 0.00 in0.0 mm
02:01 AM 47.3°F8.5°C 16.7°F-8.5°C 29% 2.0 mph 3.2 kmh 2.5 mph4.0 kmh 30.13 in1020.3 mb 0.00 in0.0 mm 0.00 in0.0 mm 0.00 in0.0 mm
02:06 AM 47.5°F8.6°C 16.7°F-8.5°C 29% 2.0 mph 3.2 kmh 2.5 mph4.0 kmh 30.13 in1020.3 mb 0.00 in0.0 mm 0.00 in0.0 mm 0.00 in0.0 mm
02:11 AM 47.5°F8.6°C 16.7°F-8.5°C 29% 3.3 mph 5.3 kmh 3.4 mph5.5 kmh 30.14 in1020.7 mb 0.00 in0.0 mm 0.00 in0.0 mm 0.00 in0.0 mm
02:16 AM 47.9°F8.8°C 18.0°F-7.8°C 30% 6.2 mph N10.0 kmh N 6.3 mph10.1 kmh 30.14 in1020.7 mb 0.00 in0.0 mm 0.00 in0.0 mm 0.00 in0.0 mm
02:21 AM 47.5°F8.6°C 17.7°F-7.9°C 30% 3.6 mph NE5.8 kmh NE 6.3 mph10.1 kmh 30.14 in1020.7 mb 0.00 in0.0 mm 0.00 in0.0 mm 0.00 in0.0 mm
02:26 AM 47.3°F8.5°C 18.2°F-7.7°C 31% 3.0 mph NNE4.8 kmh NNE 6.0 mph9.7 kmh 30.14 in1020.7 mb 0.00 in0.0 mm 0.00 in0.0 mm 0.00 in0.0 mm
02:31 AM 47.7°F8.7°C 17.9°F-7.8°C 30% 2.2 mph NNE3.5 kmh NNE 4.0 mph6.4 kmh 30.14 in1020.7 mb 0.00 in0.0 mm 0.00 in0.0 mm 0.00 in0.0 mm
02:36 AM 47.0°F8.3°C 16.3°F-8.7°C 29% 1.7 mph N2.7 kmh N 2.5 mph4.0 kmh 30.15 in1021.0 mb 0.00 in0.0 mm 0.00 in0.0 mm 0.00 in0.0 mm
02:41 AM 46.4°F8.0°C 16.7°F-8.5°C 30% 2.3 mph NE3.7 kmh NE 2.5 mph4.0 kmh 30.14 in1020.7 mb 0.00 in0.0 mm 0.00 in0.0 mm 0.00 in0.0 mm
02:46 AM 46.1°F7.8°C 16.4°F-8.7°C 30% 1.9 mph ENE3.1 kmh ENE 2.5 mph4.0 kmh 30.15 in1021.0 mb 0.00 in0.0 mm 0.00 in0.0 mm 0.00 in0.0 mm
02:51 AM 45.7°F7.6°C 16.7°F-8.5°C 31% 2.2 mph ENE3.5 kmh ENE 2.5 mph4.0 kmh 30.15 in1021.0 mb 0.00 in0.0 mm 0.00 in0.0 mm 0.00 in0.0 mm
02:56 AM 45.5°F7.5°C 17.3°F-8.2°C 32% 3.0 mph ENE4.8 kmh ENE 4.0 mph6.4 kmh 30.15 in1021.0 mb 0.00 in0.0 mm 0.00 in0.0 mm 0.00 in0.0 mm
03:02 AM 45.4°F7.4°C 15.8°F-9.0°C 30% 3.1 mph 5.0 kmh 4.0 mph6.4 kmh 30.15 in1021.0 mb 0.00 in0.0 mm 0.00 in0.0 mm 0.00 in0.0 mm
03:07 AM 45.2°F7.3°C 16.3°F-8.7°C 31% 1.9 mph 3.1 kmh 4.0 mph6.4 kmh 30.15 in1021.0 mb 0.00 in0.0 mm 0.00 in0.0 mm 0.00 in0.0 mm
03:12 AM 45.4°F7.4°C 16.5°F-8.6°C 31% 3.1 mph NNE5.0 kmh NNE 3.4 mph5.5 kmh 30.15 in1021.0 mb 0.00 in0.0 mm 0.00 in0.0 mm 0.00 in0.0 mm
03:17 AM 45.4°F7.4°C 17.1°F-8.3°C 32% 3.9 mph E6.3 kmh E 4.3 mph6.9 kmh 30.15 in1021.0 mb 0.00 in0.0 mm 0.00 in0.0 mm 0.00 in0.0 mm
03:22 AM 45.5°F7.5°C 17.9°F-7.8°C 33% 2.1 mph E3.4 kmh E 4.3 mph6.9 kmh 30.15 in1021.0 mb 0.00 in0.0 mm 0.00 in0.0 mm 0.00 in0.0 mm
03:27 AM 45.0°F7.2°C 16.7°F-8.5°C 32% 0.8 mph WSW1.3 kmh WSW 4.0 mph6.4 kmh 30.15 in1021.0 mb 0.00 in0.0 mm 0.00 in0.0 mm 0.00 in0.0 mm
03:32 AM 44.5°F6.9°C 15.7°F-9.1°C 31% 2.2 mph N3.5 kmh N 2.5 mph4.0 kmh 30.15 in1021.0 mb 0.00 in0.0 mm 0.00 in0.0 mm 0.00 in0.0 mm
03:37 AM 43.9°F6.6°C 15.9°F-8.9°C 32% 1.5 mph NE2.4 kmh NE 2.7 mph4.3 kmh 30.15 in1021.0 mb 0.00 in0.0 mm 0.00 in0.0 mm 0.00 in0.0 mm
03:42 AM 43.7°F6.5°C 15.7°F-9.1°C 32% 1.0 mph 1.6 kmh 2.7 mph4.3 kmh 30.15 in1021.0 mb 0.00 in0.0 mm 0.00 in0.0 mm 0.00 in0.0 mm
03:47 AM 43.6°F6.4°C 16.1°F-8.8°C 33% 0.9 mph 1.4 kmh 1.8 mph2.9 kmh 30.16 in1021.3 mb 0.00 in0.0 mm 0.00 in0.0 mm 0.00 in0.0 mm
03:52 AM 43.6°F6.4°C 16.1°F-8.8°C 33% 0.8 mph 1.3 kmh 1.6 mph2.6 kmh 30.16 in1021.3 mb 0.00 in0.0 mm 0.00 in0.0 mm 0.00 in0.0 mm
03:57 AM 43.6°F6.4°C 16.1°F-8.8°C 33% 1.5 mph 2.4 kmh 1.8 mph2.9 kmh 30.16 in1021.3 mb 0.00 in0.0 mm 0.00 in0.0 mm 0.00 in0.0 mm
04:03 AM 43.4°F6.3°C 16.7°F-8.5°C 34% 1.2 mph NNE1.9 kmh NNE 1.8 mph2.9 kmh 30.16 in1021.3 mb 0.00 in0.0 mm 0.00 in0.0 mm 0.00 in0.0 mm
04:08 AM 43.4°F6.3°C 16.0°F-8.9°C 33% 1.3 mph NE2.1 kmh NE 1.6 mph2.6 kmh 30.16 in1021.3 mb 0.00 in0.0 mm 0.00 in0.0 mm 0.00 in0.0 mm
04:13 AM 43.2°F6.2°C 15.9°F-8.9°C 33% 1.2 mph NNE1.9 kmh NNE 2.0 mph3.2 kmh 30.16 in1021.3 mb 0.00 in0.0 mm 0.00 in0.0 mm 0.00 in0.0 mm
04:18 AM 43.0°F6.1°C 15.0°F-9.4°C 32% 0.8 mph 1.3 kmh 2.5 mph4.0 kmh 30.16 in1021.3 mb 0.00 in0.0 mm 0.00 in0.0 mm 0.00 in0.0 mm
04:23 AM 42.7°F5.9°C 14.7°F-9.6°C 32% Calm Calm 2.5 mph4.0 kmh 30.16 in1021.3 mb 0.00 in0.0 mm 0.00 in0.0 mm 0.00 in0.0 mm
04:27 AM 42.5°F5.8°C 15.2°F-9.3°C 33% 3.3 mph ENE5.3 kmh ENE 4.0 mph6.4 kmh 30.16 in1021.3 mb 0.00 in0.0 mm 0.00 in0.0 mm 0.00 in0.0 mm
04:32 AM 42.7°F5.9°C 16.7°F-8.5°C 35% 2.0 mph N3.2 kmh N 4.0 mph6.4 kmh 30.16 in1021.3 mb 0.00 in0.0 mm 0.00 in0.0 mm 0.00 in0.0 mm
04:38 AM 42.8°F6.0°C 16.8°F-8.4°C 35% 1.8 mph NE2.9 kmh NE 4.0 mph6.4 kmh 30.17 in1021.7 mb 0.00 in0.0 mm 0.00 in0.0 mm 0.00 in0.0 mm
04:43 AM 42.7°F5.9°C 16.7°F-8.5°C 35% 1.0 mph NE1.6 kmh NE 2.9 mph4.7 kmh 30.17 in1021.7 mb 0.00 in0.0 mm 0.00 in0.0 mm 0.00 in0.0 mm
04:48 AM 42.5°F5.8°C 16.6°F-8.6°C 35% 0.2 mph NE0.3 kmh NE 1.1 mph1.8 kmh 30.17 in1021.7 mb 0.00 in0.0 mm 0.00 in0.0 mm 0.00 in0.0 mm
04:53 AM 42.3°F5.7°C 17.7°F-7.9°C 37% 1.8 mph NE2.9 kmh NE 1.8 mph2.9 kmh 30.17 in1021.7 mb 0.00 in0.0 mm 0.00 in0.0 mm 0.00 in0.0 mm
04:58 AM 42.3°F5.7°C 17.7°F-7.9°C 37% 2.2 mph NW3.5 kmh NW 2.2 mph3.5 kmh 30.17 in1021.7 mb 0.00 in0.0 mm 0.00 in0.0 mm 0.00 in0.0 mm
05:04 AM 42.1°F5.6°C 16.9°F-8.4°C 36% 2.0 mph N3.2 kmh N 2.9 mph4.7 kmh 30.17 in1021.7 mb 0.00 in0.0 mm 0.00 in0.0 mm 0.00 in0.0 mm
05:08 AM 41.8°F5.4°C 15.9°F-8.9°C 35% 1.9 mph 3.1 kmh 2.9 mph4.7 kmh 30.17 in1021.7 mb 0.00 in0.0 mm 0.00 in0.0 mm 0.00 in0.0 mm
05:13 AM 41.6°F5.3°C 15.8°F-9.0°C 35% 3.1 mph NNE5.0 kmh NNE 3.4 mph5.5 kmh 30.17 in1021.7 mb 0.00 in0.0 mm 0.00 in0.0 mm 0.00 in0.0 mm
05:18 AM 41.8°F5.4°C 16.6°F-8.6°C 36% 1.9 mph 3.1 kmh 3.6 mph5.8 kmh 30.17 in1021.7 mb 0.00 in0.0 mm 0.00 in0.0 mm 0.00 in0.0 mm
05:23 AM 41.6°F5.3°C 16.4°F-8.7°C 36% 3.3 mph NNE5.3 kmh NNE 4.0 mph6.4 kmh 30.18 in1022.0 mb 0.00 in0.0 mm 0.00 in0.0 mm 0.00 in0.0 mm
05:28 AM 41.6°F5.3°C 17.1°F-8.3°C 37% 4.4 mph 7.1 kmh 5.1 mph8.2 kmh 30.18 in1022.0 mb 0.00 in0.0 mm 0.00 in0.0 mm 0.00 in0.0 mm
05:33 AM 41.4°F5.2°C 17.6°F-8.0°C 38% 2.7 mph NNE4.3 kmh NNE 5.1 mph8.2 kmh 30.18 in1022.0 mb 0.00 in0.0 mm 0.00 in0.0 mm 0.00 in0.0 mm
05:39 AM 41.0°F5.0°C 16.6°F-8.6°C 37% 2.8 mph NNE4.5 kmh NNE 4.0 mph6.4 kmh 30.18 in1022.0 mb 0.00 in0.0 mm 0.00 in0.0 mm 0.00 in0.0 mm
05:44 AM 41.2°F5.1°C 18.7°F-7.4°C 40% 3.3 mph ENE5.3 kmh ENE 4.3 mph6.9 kmh 30.18 in1022.0 mb 0.00 in0.0 mm 0.00 in0.0 mm 0.00 in0.0 mm
05:49 AM 41.4°F5.2°C 19.9°F-6.7°C 42% 3.5 mph ENE5.6 kmh ENE 4.3 mph6.9 kmh 30.18 in1022.0 mb 0.00 in0.0 mm 0.00 in0.0 mm 0.00 in0.0 mm
05:54 AM 41.4°F5.2°C 18.9°F-7.3°C 40% 1.9 mph NE3.1 kmh NE 4.0 mph6.4 kmh 30.19 in1022.4 mb 0.00 in0.0 mm 0.00 in0.0 mm 0.00 in0.0 mm
06:01 AM 41.0°F5.0°C 19.1°F-7.2°C 41% 3.1 mph ENE5.0 kmh ENE 3.4 mph5.5 kmh 30.19 in1022.4 mb 0.00 in0.0 mm 0.00 in0.0 mm 0.00 in0.0 mm
06:06 AM 40.7°F4.8°C 18.2°F-7.7°C 40% 1.1 mph NE1.8 kmh NE 3.4 mph5.5 kmh 30.19 in1022.4 mb 0.00 in0.0 mm 0.00 in0.0 mm 0.00 in0.0 mm
06:10 AM 40.3°F4.6°C 17.3°F-8.2°C 39% 1.3 mph NNE2.1 kmh NNE 3.4 mph5.5 kmh 30.19 in1022.4 mb 0.00 in0.0 mm 0.00 in0.0 mm 0.00 in0.0 mm
06:15 AM 40.1°F4.5°C 17.1°F-8.3°C 39% 1.5 mph 2.4 kmh 2.5 mph4.0 kmh 30.19 in1022.4 mb 0.00 in0.0 mm 0.00 in0.0 mm 0.00 in0.0 mm
06:20 AM 40.1°F4.5°C 16.5°F-8.6°C 38% 2.6 mph 4.2 kmh 2.7 mph4.3 kmh 30.20 in1022.7 mb 0.00 in0.0 mm 0.00 in0.0 mm 0.00 in0.0 mm
06:25 AM 40.3°F4.6°C 17.3°F-8.2°C 39% 2.7 mph 4.3 kmh 2.9 mph4.7 kmh 30.20 in1022.7 mb 0.00 in0.0 mm 0.00 in0.0 mm 0.00 in0.0 mm
06:30 AM 40.5°F4.7°C 17.4°F-8.1°C 39% 2.5 mph 4.0 kmh 2.9 mph4.7 kmh 30.20 in1022.7 mb 0.00 in0.0 mm 0.00 in0.0 mm 0.00 in0.0 mm
06:35 AM 40.1°F4.5°C 16.5°F-8.6°C 38% 1.7 mph 2.7 kmh 3.1 mph5.0 kmh 30.20 in1022.7 mb 0.00 in0.0 mm 0.00 in0.0 mm 0.00 in0.0 mm
06:41 AM 40.1°F4.5°C 17.1°F-8.3°C 39% 1.1 mph 1.8 kmh 3.1 mph5.0 kmh 30.21 in1023.0 mb 0.00 in0.0 mm 0.00 in0.0 mm 0.00 in0.0 mm
06:46 AM 40.5°F4.7°C 17.4°F-8.1°C 39% 0.7 mph 1.1 kmh 2.0 mph3.2 kmh 30.21 in1023.0 mb 0.00 in0.0 mm 0.00 in0.0 mm 0.00 in0.0 mm
06:51 AM 40.9°F4.9°C 17.7°F-7.9°C 39% Calm Calm 1.1 mph1.8 kmh 30.21 in1023.0 mb 0.00 in0.0 mm 0.00 in0.0 mm 0.00 in0.0 mm
06:56 AM 41.2°F5.1°C 17.4°F-8.1°C 38% 1.5 mph 2.4 kmh 1.8 mph2.9 kmh 30.21 in1023.0 mb 0.00 in0.0 mm 0.00 in0.0 mm 0.00 in0.0 mm
07:02 AM 41.8°F5.4°C 17.9°F-7.8°C 38% 0.8 mph 1.3 kmh 1.8 mph2.9 kmh 30.21 in1023.0 mb 0.00 in0.0 mm 0.00 in0.0 mm 0.00 in0.0 mm
07:07 AM 42.5°F5.8°C 19.2°F-7.1°C 39% Calm Calm 1.8 mph2.9 kmh 30.21 in1023.0 mb 0.00 in0.0 mm 0.00 in0.0 mm 0.00 in0.0 mm
07:12 AM 43.2°F6.2°C 20.5°F-6.4°C 40% 0.4 mph 0.6 kmh 1.1 mph1.8 kmh 30.21 in1023.0 mb 0.00 in0.0 mm 0.00 in0.0 mm 0.00 in0.0 mm
07:17 AM 44.3°F6.8°C 21.4°F-5.9°C 40% 0.9 mph 1.4 kmh 1.1 mph1.8 kmh 30.21 in1023.0 mb 0.00 in0.0 mm 0.00 in0.0 mm 0.00 in0.0 mm
07:22 AM 45.2°F7.3°C 23.3°F-4.8°C 42% 1.7 mph E2.7 kmh E 2.5 mph4.0 kmh 30.21 in1023.0 mb 0.00 in0.0 mm 0.00 in0.0 mm 0.00 in0.0 mm
07:27 AM 46.3°F7.9°C 24.3°F-4.3°C 42% 1.1 mph E1.8 kmh E 2.5 mph4.0 kmh 30.21 in1023.0 mb 0.00 in0.0 mm 0.00 in0.0 mm 0.00 in0.0 mm
07:32 AM 47.2°F8.4°C 25.1°F-3.8°C 42% 1.6 mph E2.6 kmh E 2.0 mph3.2 kmh 30.21 in1023.0 mb 0.00 in0.0 mm 0.00 in0.0 mm 0.00 in0.0 mm
07:37 AM 48.2°F9.0°C 25.6°F-3.6°C 41% 3.2 mph ESE5.1 kmh ESE 3.4 mph5.5 kmh 30.21 in1023.0 mb 0.00 in0.0 mm 0.00 in0.0 mm 0.00 in0.0 mm
07:42 AM 49.0°F9.4°C 26.7°F-2.9°C 42% 1.6 mph ESE2.6 kmh ESE 3.4 mph5.5 kmh 30.22 in1023.4 mb 0.00 in0.0 mm 0.00 in0.0 mm 0.00 in0.0 mm
07:47 AM 49.9°F9.9°C 27.6°F-2.4°C 42% 1.8 mph E2.9 kmh E 2.7 mph4.3 kmh 30.21 in1023.0 mb 0.00 in0.0 mm 0.00 in0.0 mm 0.00 in0.0 mm
07:52 AM 50.8°F10.4°C 28.5°F-1.9°C 42% 1.4 mph ESE2.3 kmh ESE 2.5 mph4.0 kmh 30.22 in1023.4 mb 0.00 in0.0 mm 0.00 in0.0 mm 0.00 in0.0 mm
07:57 AM 51.7°F10.9°C 29.8°F-1.2°C 43% 1.2 mph SE1.9 kmh SE 2.5 mph4.0 kmh 30.22 in1023.4 mb 0.00 in0.0 mm 0.00 in0.0 mm 0.00 in0.0 mm
08:02 AM 52.7°F11.5°C 30.2°F-1.0°C 42% 1.0 mph SE1.6 kmh SE 1.8 mph2.9 kmh 30.22 in1023.4 mb 0.00 in0.0 mm 0.00 in0.0 mm 0.00 in0.0 mm
08:07 AM 53.8°F12.1°C 30.6°F-0.8°C 41% 0.4 mph ESE0.6 kmh ESE 2.5 mph4.0 kmh 30.22 in1023.4 mb 0.00 in0.0 mm 0.00 in0.0 mm 0.00 in0.0 mm
08:12 AM 54.9°F12.7°C 31.1°F-0.5°C 40% 1.5 mph SE2.4 kmh SE 2.5 mph4.0 kmh 30.22 in1023.4 mb 0.00 in0.0 mm 0.00 in0.0 mm 0.00 in0.0 mm
08:17 AM 56.2°F13.4°C 30.1°F-1.1°C 37% 3.5 mph NE5.6 kmh NE 4.3 mph6.9 kmh 30.22 in1023.4 mb 0.00 in0.0 mm 0.00 in0.0 mm 0.00 in0.0 mm
08:22 AM 57.2°F14.0°C 31.1°F-0.5°C 37% 4.1 mph ENE6.6 kmh ENE 4.7 mph7.6 kmh 30.22 in1023.4 mb 0.00 in0.0 mm 0.00 in0.0 mm 0.00 in0.0 mm
08:27 AM 58.5°F14.7°C 30.8°F-0.7°C 35% 3.7 mph E6.0 kmh E 4.7 mph7.6 kmh 30.22 in1023.4 mb 0.00 in0.0 mm 0.00 in0.0 mm 0.00 in0.0 mm
08:32 AM 59.4°F15.2°C 30.9°F-0.6°C 34% 4.7 mph ESE7.6 kmh ESE 4.7 mph7.6 kmh 30.22 in1023.4 mb 0.00 in0.0 mm 0.00 in0.0 mm 0.00 in0.0 mm
08:37 AM 60.3°F15.7°C 31.6°F-0.2°C 34% 2.3 mph ESE3.7 kmh ESE 5.1 mph8.2 kmh 30.22 in1023.4 mb 0.00 in0.0 mm 0.00 in0.0 mm 0.00 in0.0 mm
08:42 AM 61.4°F16.3°C 32.5°F0.3°C 34% 3.3 mph E5.3 kmh E 5.1 mph8.2 kmh 30.22 in1023.4 mb 0.00 in0.0 mm 0.00 in0.0 mm 0.00 in0.0 mm
08:47 AM 62.3°F16.8°C 31.9°F-0.1°C 32% 1.9 mph E3.1 kmh E 4.3 mph6.9 kmh 30.22 in1023.4 mb 0.00 in0.0 mm 0.00 in0.0 mm 0.00 in0.0 mm
08:52 AM 63.4°F17.4°C 30.4°F-0.9°C 29% 2.9 mph 4.7 kmh 4.5 mph7.2 kmh 30.22 in1023.4 mb 0.00 in0.0 mm 0.00 in0.0 mm 0.00 in0.0 mm
08:57 AM 64.1°F17.8°C 30.1°F-1.1°C 28% 2.5 mph NE4.0 kmh NE 4.5 mph7.2 kmh 30.22 in1023.4 mb 0.00 in0.0 mm 0.00 in0.0 mm 0.00 in0.0 mm
09:02 AM 64.8°F18.2°C 31.8°F-0.1°C 29% 3.3 mph E5.3 kmh E 4.7 mph7.6 kmh 30.22 in1023.4 mb 0.00 in0.0 mm 0.00 in0.0 mm 0.00 in0.0 mm
09:07 AM 65.7°F18.7°C 31.5°F-0.3°C 28% 3.5 mph NE5.6 kmh NE 4.7 mph7.6 kmh 30.23 in1023.7 mb 0.00 in0.0 mm 0.00 in0.0 mm 0.00 in0.0 mm
09:12 AM 66.6°F19.2°C 30.3°F-0.9°C 26% 2.3 mph E3.7 kmh E 4.0 mph6.4 kmh 30.22 in1023.4 mb 0.00 in0.0 mm 0.00 in0.0 mm 0.00 in0.0 mm
09:17 AM 67.1°F19.5°C 29.7°F-1.3°C 25% 0.9 mph 1.4 kmh 4.5 mph7.2 kmh 30.23 in1023.7 mb 0.00 in0.0 mm 0.00 in0.0 mm 0.00 in0.0 mm
09:22 AM 68.2°F20.1°C 31.7°F-0.2°C 26% 1.9 mph SSW3.1 kmh SSW 4.5 mph7.2 kmh 30.22 in1023.4 mb 0.00 in0.0 mm 0.00 in0.0 mm 0.00 in0.0 mm
09:27 AM 69.5°F20.8°C 32.8°F0.4°C 26% 2.5 mph SW4.0 kmh SW 4.0 mph6.4 kmh 30.23 in1023.7 mb 0.00 in0.0 mm 0.00 in0.0 mm 0.00 in0.0 mm
09:32 AM 70.6°F21.4°C 34.7°F1.5°C 27% 2.4 mph SW3.9 kmh SW 4.0 mph6.4 kmh 30.23 in1023.7 mb 0.00 in0.0 mm 0.00 in0.0 mm 0.00 in0.0 mm
09:37 AM 72.0°F22.2°C 34.9°F1.6°C 26% 2.0 mph SE3.2 kmh SE 3.1 mph5.0 kmh 30.23 in1023.7 mb 0.00 in0.0 mm 0.00 in0.0 mm 0.00 in0.0 mm
09:42 AM 73.1°F22.8°C 35.8°F2.1°C 26% 1.5 mph SSW2.4 kmh SSW 3.1 mph5.0 kmh 30.23 in1023.7 mb 0.00 in0.0 mm 0.00 in0.0 mm 0.00 in0.0 mm
09:47 AM 74.5°F23.6°C 36.0°F2.2°C 25% 0.4 mph SW0.6 kmh SW 3.1 mph5.0 kmh 30.23 in1023.7 mb 0.00 in0.0 mm 0.00 in0.0 mm 0.00 in0.0 mm
09:52 AM 75.1°F23.9°C 34.5°F1.4°C 23% 2.5 mph WNW4.0 kmh WNW 2.7 mph4.3 kmh 30.23 in1023.7 mb 0.00 in0.0 mm 0.00 in0.0 mm 0.00 in0.0 mm
09:57 AM 75.2°F24.0°C 34.6°F1.4°C 23% 2.5 mph S4.0 kmh S 4.7 mph7.6 kmh 30.23 in1023.7 mb 0.00 in0.0 mm 0.00 in0.0 mm 0.00 in0.0 mm
10:03 AM 76.1°F24.5°C 36.4°F2.4°C 24% 1.7 mph S2.7 kmh S 4.7 mph7.6 kmh 30.23 in1023.7 mb 0.00 in0.0 mm 0.00 in0.0 mm 0.00 in0.0 mm
10:08 AM 77.6°F25.3°C 37.5°F3.1°C 24% 0.8 mph SSE1.3 kmh SSE 4.0 mph6.4 kmh 30.23 in1023.7 mb 0.00 in0.0 mm 0.00 in0.0 mm 0.00 in0.0 mm
10:13 AM 78.7°F25.9°C 37.4°F3.0°C 23% 2.3 mph SE3.7 kmh SE 2.9 mph4.7 kmh 30.23 in1023.7 mb 0.00 in0.0 mm 0.00 in0.0 mm 0.00 in0.0 mm
10:18 AM 79.9°F26.6°C 38.5°F3.6°C 23% 2.7 mph ESE4.3 kmh ESE 3.8 mph6.1 kmh 30.23 in1023.7 mb 0.00 in0.0 mm 0.00 in0.0 mm 0.00 in0.0 mm
10:23 AM 80.8°F27.1°C 38.3°F3.5°C 22% 4.7 mph S7.6 kmh S 4.7 mph7.6 kmh 30.23 in1023.7 mb 0.00 in0.0 mm 0.00 in0.0 mm 0.00 in0.0 mm
10:28 AM 81.5°F27.5°C 37.8°F3.2°C 21% 4.3 mph NW6.9 kmh NW 6.3 mph10.1 kmh 30.23 in1023.7 mb 0.00 in0.0 mm 0.00 in0.0 mm 0.00 in0.0 mm
10:33 AM 81.0°F27.2°C 34.6°F1.4°C 19% 6.6 mph WSW10.6 kmh WSW 6.9 mph11.1 kmh 30.22 in1023.4 mb 0.00 in0.0 mm 0.00 in0.0 mm 0.00 in0.0 mm
10:38 AM 80.8°F27.1°C 34.5°F1.4°C 19% 7.7 mph SW12.4 kmh SW 9.6 mph15.4 kmh 30.23 in1023.7 mb 0.00 in0.0 mm 0.00 in0.0 mm 0.00 in0.0 mm
10:43 AM 81.0°F27.2°C 36.3°F2.4°C 20% 7.2 mph SW11.6 kmh SW 9.6 mph15.4 kmh 30.23 in1023.7 mb 0.00 in0.0 mm 0.00 in0.0 mm 0.00 in0.0 mm
10:48 AM 81.7°F27.6°C 37.9°F3.3°C 21% 6.9 mph SW11.1 kmh SW 7.8 mph12.6 kmh 30.23 in1023.7 mb 0.00 in0.0 mm 0.00 in0.0 mm 0.00 in0.0 mm
10:53 AM 82.8°F28.2°C 36.0°F2.2°C 19% 5.9 mph WSW9.5 kmh WSW 6.9 mph11.1 kmh 30.22 in1023.4 mb 0.00 in0.0 mm 0.00 in0.0 mm 0.00 in0.0 mm
10:58 AM 82.8°F28.2°C 36.0°F2.2°C 19% 5.4 mph S8.7 kmh S 7.4 mph11.9 kmh 30.22 in1023.4 mb 0.00 in0.0 mm 0.00 in0.0 mm 0.00 in0.0 mm
11:04 AM 83.5°F28.6°C 36.6°F2.6°C 19% 4.5 mph SW7.2 kmh SW 7.4 mph11.9 kmh 30.22 in1023.4 mb 0.00 in0.0 mm 0.00 in0.0 mm 0.00 in0.0 mm
11:09 AM 83.5°F28.6°C 33.2°F0.7°C 17% 5.2 mph NW8.4 kmh NW 8.5 mph13.7 kmh 30.22 in1023.4 mb 0.00 in0.0 mm 0.00 in0.0 mm 0.00 in0.0 mm
11:14 AM 83.9°F28.8°C 35.2°F1.8°C 18% 3.3 mph WNW5.3 kmh WNW 8.5 mph13.7 kmh 30.22 in1023.4 mb 0.00 in0.0 mm 0.00 in0.0 mm 0.00 in0.0 mm
11:19 AM 84.2°F29.0°C 33.8°F1.0°C 17% 3.1 mph WSW5.0 kmh WSW 7.4 mph11.9 kmh 30.22 in1023.4 mb 0.00 in0.0 mm 0.00 in0.0 mm 0.00 in0.0 mm
11:24 AM 84.8°F29.3°C 34.2°F1.2°C 17% 6.4 mph SW10.3 kmh SW 8.9 mph14.3 kmh 30.22 in1023.4 mb 0.00 in0.0 mm 0.00 in0.0 mm 0.00 in0.0 mm
11:29 AM 85.0°F29.4°C 34.3°F1.3°C 17% 5.6 mph SW9.0 kmh SW 10.5 mph16.9 kmh 30.22 in1023.4 mb 0.00 in0.0 mm 0.00 in0.0 mm 0.00 in0.0 mm
11:34 AM 85.3°F29.6°C 34.7°F1.5°C 17% 5.3 mph SW8.5 kmh SW 10.5 mph16.9 kmh 30.22 in1023.4 mb 0.00 in0.0 mm 0.00 in0.0 mm 0.00 in0.0 mm
11:38 AM 85.7°F29.8°C 33.2°F0.7°C 16% 2.2 mph NW3.5 kmh NW 8.3 mph13.4 kmh 30.22 in1023.4 mb 0.00 in0.0 mm 0.00 in0.0 mm 0.00 in0.0 mm
11:43 AM 86.6°F30.3°C 35.6°F2.0°C 17% 2.4 mph S3.9 kmh S 8.1 mph13.0 kmh 30.21 in1023.0 mb 0.00 in0.0 mm 0.00 in0.0 mm 0.00 in0.0 mm
11:48 AM 87.7°F30.9°C 38.4°F3.6°C 18% 2.3 mph SW3.7 kmh SW 6.7 mph10.8 kmh 30.21 in1023.0 mb 0.00 in0.0 mm 0.00 in0.0 mm 0.00 in0.0 mm
11:54 AM 88.7°F31.5°C 37.4°F3.0°C 17% 4.2 mph SW6.8 kmh SW 5.8 mph9.3 kmh 30.21 in1023.0 mb 0.00 in0.0 mm 0.00 in0.0 mm 0.00 in0.0 mm
12:00 PM 88.6°F31.4°C 37.4°F3.0°C 17% 4.6 mph SW7.4 kmh SW 6.7 mph10.8 kmh 30.21 in1023.0 mb 0.00 in0.0 mm 0.00 in0.0 mm 0.00 in0.0 mm
12:05 PM 89.5°F31.9°C 39.8°F4.3°C 18% 4.3 mph S6.9 kmh S 6.7 mph10.8 kmh 30.21 in1023.0 mb 0.00 in0.0 mm 0.00 in0.0 mm 0.00 in0.0 mm
12:10 PM 90.5°F32.5°C 38.9°F3.8°C 17% 1.7 mph S2.7 kmh S 4.9 mph7.9 kmh 30.21 in1023.0 mb 0.00 in0.0 mm 0.00 in0.0 mm 0.00 in0.0 mm
12:15 PM 91.1°F32.8°C 37.5°F3.1°C 16% 2.5 mph WNW4.0 kmh WNW 4.3 mph6.9 kmh 30.20 in1022.7 mb 0.00 in0.0 mm 0.00 in0.0 mm 0.00 in0.0 mm
12:19 PM 91.4°F33.0°C 39.6°F4.2°C 17% 5.7 mph S9.2 kmh S 8.1 mph13.0 kmh 30.21 in1023.0 mb 0.00 in0.0 mm 0.00 in0.0 mm 0.00 in0.0 mm
12:24 PM 91.6°F33.1°C 39.7°F4.3°C 17% 4.9 mph SSE7.9 kmh SSE 8.1 mph13.0 kmh 30.21 in1023.0 mb 0.00 in0.0 mm 0.00 in0.0 mm 0.00 in0.0 mm
12:29 PM 92.3°F33.5°C 40.3°F4.6°C 17% 2.2 mph SSE3.5 kmh SSE 6.7 mph10.8 kmh 30.20 in1022.7 mb 0.00 in0.0 mm 0.00 in0.0 mm 0.00 in0.0 mm
12:34 PM 93.2°F34.0°C 41.0°F5.0°C 17% 7.8 mph SE12.6 kmh SE 9.2 mph14.8 kmh 30.20 in1022.7 mb 0.00 in0.0 mm 0.00 in0.0 mm 0.00 in0.0 mm
12:39 PM 93.6°F34.2°C 41.2°F5.1°C 17% 3.0 mph SE4.8 kmh SE 9.2 mph14.8 kmh 30.20 in1022.7 mb 0.00 in0.0 mm 0.00 in0.0 mm 0.00 in0.0 mm
12:44 PM 94.0°F34.4°C 41.6°F5.3°C 17% 10.4 mph SSW16.7 kmh SSW 11.4 mph18.3 kmh 30.20 in1022.7 mb 0.00 in0.0 mm 0.00 in0.0 mm 0.00 in0.0 mm
12:49 PM 93.4°F34.1°C 41.1°F5.1°C 17% 6.6 mph S10.6 kmh S 11.4 mph18.3 kmh 30.20 in1022.7 mb 0.00 in0.0 mm 0.00 in0.0 mm 0.00 in0.0 mm
12:55 PM 94.0°F34.4°C 41.6°F5.3°C 17% 3.3 mph S5.3 kmh S 9.8 mph15.8 kmh 30.20 in1022.7 mb 0.00 in0.0 mm 0.00 in0.0 mm 0.00 in0.0 mm
01:00 PM 94.3°F34.6°C 40.1°F4.5°C 16% 6.2 mph SE10.0 kmh SE 9.8 mph15.8 kmh 30.20 in1022.7 mb 0.00 in0.0 mm 0.00 in0.0 mm 0.00 in0.0 mm
01:06 PM 94.7°F34.8°C 40.3°F4.6°C 16% 9.0 mph SSW14.5 kmh SSW 10.1 mph16.3 kmh 30.21 in1023.0 mb 0.00 in0.0 mm 0.00 in0.0 mm 0.00 in0.0 mm
01:11 PM 94.3°F34.6°C 40.1°F4.5°C 16% 1.7 mph SSE2.7 kmh SSE 10.1 mph16.3 kmh 30.21 in1023.0 mb 0.00 in0.0 mm 0.00 in0.0 mm 0.00 in0.0 mm
01:16 PM 94.7°F34.8°C 42.1°F5.6°C 17% 4.2 mph SSE6.8 kmh SSE 8.5 mph13.7 kmh 30.20 in1022.7 mb 0.00 in0.0 mm 0.00 in0.0 mm 0.00 in0.0 mm
01:21 PM 95.0°F35.0°C 40.7°F4.8°C 16% 4.3 mph WSW6.9 kmh WSW 7.8 mph12.6 kmh 30.21 in1023.0 mb 0.00 in0.0 mm 0.00 in0.0 mm 0.00 in0.0 mm
01:26 PM 95.2°F35.1°C 39.1°F3.9°C 15% 6.5 mph NNE10.5 kmh NNE 7.8 mph12.6 kmh 30.20 in1022.7 mb 0.00 in0.0 mm 0.00 in0.0 mm 0.00 in0.0 mm
01:31 PM 95.6°F35.3°C 41.1°F5.1°C 16% 5.6 mph S9.0 kmh S 7.2 mph11.6 kmh 30.20 in1022.7 mb 0.00 in0.0 mm 0.00 in0.0 mm 0.00 in0.0 mm
01:36 PM 95.6°F35.3°C 41.1°F5.1°C 16% 6.4 mph SSE10.3 kmh SSE 7.8 mph12.6 kmh 30.20 in1022.7 mb 0.00 in0.0 mm 0.00 in0.0 mm 0.00 in0.0 mm
01:41 PM 95.8°F35.4°C 41.2°F5.1°C 16% 4.9 mph SSE7.9 kmh SSE 8.3 mph13.4 kmh 30.20 in1022.7 mb 0.00 in0.0 mm 0.00 in0.0 mm 0.00 in0.0 mm
01:46 PM 95.8°F35.4°C 39.4°F4.1°C 15% 5.5 mph S8.9 kmh S 9.8 mph15.8 kmh 30.20 in1022.7 mb 0.00 in0.0 mm 0.00 in0.0 mm 0.00 in0.0 mm
01:51 PM 95.8°F35.4°C 39.4°F4.1°C 15% 7.8 mph SW12.6 kmh SW 11.4 mph18.3 kmh 30.20 in1022.7 mb 0.00 in0.0 mm 0.00 in0.0 mm 0.00 in0.0 mm
01:56 PM 95.0°F35.0°C 38.9°F3.8°C 15% 11.6 mph S18.7 kmh S 14.8 mph23.8 kmh 30.20 in1022.7 mb 0.00 in0.0 mm 0.00 in0.0 mm 0.00 in0.0 mm
02:02 PM 94.3°F34.6°C 40.1°F4.5°C 16% 10.3 mph SE16.6 kmh SE 14.8 mph23.8 kmh 30.20 in1022.7 mb 0.00 in0.0 mm 0.00 in0.0 mm 0.00 in0.0 mm
02:07 PM 94.7°F34.8°C 40.3°F4.6°C 16% 6.1 mph S9.8 kmh S 12.8 mph20.6 kmh 30.20 in1022.7 mb 0.00 in0.0 mm 0.00 in0.0 mm 0.00 in0.0 mm
02:13 PM 94.9°F34.9°C 40.5°F4.7°C 16% 5.5 mph S8.9 kmh S 13.2 mph21.2 kmh 30.19 in1022.4 mb 0.00 in0.0 mm 0.00 in0.0 mm 0.00 in0.0 mm
02:18 PM 95.2°F35.1°C 40.8°F4.9°C 16% 5.9 mph SE9.5 kmh SE 12.5 mph20.1 kmh 30.20 in1022.7 mb 0.00 in0.0 mm 0.00 in0.0 mm 0.00 in0.0 mm
02:23 PM 95.4°F35.2°C 39.2°F4.0°C 15% 9.1 mph SW14.6 kmh SW 10.7 mph17.2 kmh 30.19 in1022.4 mb 0.00 in0.0 mm 0.00 in0.0 mm 0.00 in0.0 mm
02:28 PM 94.1°F34.5°C 34.7°F1.5°C 13% 7.5 mph SW12.1 kmh SW 11.9 mph19.2 kmh 30.19 in1022.4 mb 0.00 in0.0 mm 0.00 in0.0 mm 0.00 in0.0 mm
02:32 PM 94.0°F34.4°C 38.0°F3.3°C 15% 9.4 mph SSE15.1 kmh SSE 12.5 mph20.1 kmh 30.19 in1022.4 mb 0.00 in0.0 mm 0.00 in0.0 mm 0.00 in0.0 mm
02:37 PM 94.3°F34.6°C 40.1°F4.5°C 16% 1.9 mph SSE3.1 kmh SSE 12.5 mph20.1 kmh 30.19 in1022.4 mb 0.00 in0.0 mm 0.00 in0.0 mm 0.00 in0.0 mm
02:42 PM 95.4°F35.2°C 41.0°F5.0°C 16% 8.8 mph SE14.2 kmh SE 9.2 mph14.8 kmh 30.18 in1022.0 mb 0.00 in0.0 mm 0.00 in0.0 mm 0.00 in0.0 mm
02:48 PM 95.9°F35.5°C 39.6°F4.2°C 15% 9.2 mph SW14.8 kmh SW 11.4 mph18.3 kmh 30.18 in1022.0 mb 0.00 in0.0 mm 0.00 in0.0 mm 0.00 in0.0 mm
02:53 PM 95.4°F35.2°C 39.2°F4.0°C 15% 6.6 mph SW10.6 kmh SW 11.4 mph18.3 kmh 30.18 in1022.0 mb 0.00 in0.0 mm 0.00 in0.0 mm 0.00 in0.0 mm
02:58 PM 94.3°F34.6°C 34.7°F1.5°C 13% 11.6 mph SSW18.7 kmh SSW 14.3 mph23.0 kmh 30.18 in1022.0 mb 0.00 in0.0 mm 0.00 in0.0 mm 0.00 in0.0 mm
03:03 PM 93.6°F34.2°C 37.7°F3.2°C 15% 6.6 mph S10.6 kmh S 15.0 mph24.1 kmh 30.18 in1022.0 mb 0.00 in0.0 mm 0.00 in0.0 mm 0.00 in0.0 mm
03:08 PM 94.0°F34.4°C 38.0°F3.3°C 15% 9.1 mph S14.6 kmh S 15.0 mph24.1 kmh 30.18 in1022.0 mb 0.00 in0.0 mm 0.00 in0.0 mm 0.00 in0.0 mm
03:13 PM 94.5°F34.7°C 38.4°F3.6°C 15% 9.9 mph S15.9 kmh S 10.5 mph16.9 kmh 30.17 in1021.7 mb 0.00 in0.0 mm 0.00 in0.0 mm 0.00 in0.0 mm
03:19 PM 93.4°F34.1°C 34.0°F1.1°C 13% 9.4 mph SW15.1 kmh SW 13.4 mph21.6 kmh 30.17 in1021.7 mb 0.00 in0.0 mm 0.00 in0.0 mm 0.00 in0.0 mm
03:24 PM 92.9°F33.8°C 33.7°F0.9°C 13% 4.9 mph SSW7.9 kmh SSW 13.4 mph21.6 kmh 30.17 in1021.7 mb 0.00 in0.0 mm 0.00 in0.0 mm 0.00 in0.0 mm
03:29 PM 92.7°F33.7°C 31.8°F-0.1°C 12% 14.4 mph WSW23.2 kmh WSW 17.0 mph27.4 kmh 30.17 in1021.7 mb 0.00 in0.0 mm 0.00 in0.0 mm 0.00 in0.0 mm
03:34 PM 92.2°F33.4°C 33.1°F0.6°C 13% 4.9 mph SW7.9 kmh SW 17.0 mph27.4 kmh 30.17 in1021.7 mb 0.00 in0.0 mm 0.00 in0.0 mm 0.00 in0.0 mm
03:39 PM 92.3°F33.5°C 31.5°F-0.3°C 12% 9.5 mph W15.3 kmh W 16.6 mph26.7 kmh 30.17 in1021.7 mb 0.00 in0.0 mm 0.00 in0.0 mm 0.00 in0.0 mm
03:45 PM 92.2°F33.4°C 31.4°F-0.3°C 12% 13.9 mph SW22.4 kmh SW 18.1 mph29.1 kmh 30.17 in1021.7 mb 0.00 in0.0 mm 0.00 in0.0 mm 0.00 in0.0 mm
03:50 PM 91.6°F33.1°C 32.8°F0.4°C 13% 6.4 mph SW10.3 kmh SW 18.1 mph29.1 kmh 30.17 in1021.7 mb 0.00 in0.0 mm 0.00 in0.0 mm 0.00 in0.0 mm
03:55 PM 91.8°F33.2°C 32.9°F0.5°C 13% 8.9 mph SW14.3 kmh SW 14.1 mph22.7 kmh 30.17 in1021.7 mb 0.00 in0.0 mm 0.00 in0.0 mm 0.00 in0.0 mm
04:02 PM 91.8°F33.2°C 32.9°F0.5°C 13% 12.4 mph SSW20.0 kmh SSW 14.1 mph22.7 kmh 30.17 in1021.7 mb 0.00 in0.0 mm 0.00 in0.0 mm 0.00 in0.0 mm
04:07 PM 92.2°F33.4°C 36.6°F2.6°C 15% 3.5 mph SE5.6 kmh SE 14.1 mph22.7 kmh 30.17 in1021.7 mb 0.00 in0.0 mm 0.00 in0.0 mm 0.00 in0.0 mm
04:12 PM 92.7°F33.7°C 37.1°F2.8°C 15% 6.6 mph S10.6 kmh S 9.8 mph15.8 kmh 30.17 in1021.7 mb 0.00 in0.0 mm 0.00 in0.0 mm 0.00 in0.0 mm
04:16 PM 92.9°F33.8°C 37.2°F2.9°C 15% 8.8 mph SSW14.2 kmh SSW 9.8 mph15.8 kmh 30.17 in1021.7 mb 0.00 in0.0 mm 0.00 in0.0 mm 0.00 in0.0 mm
04:21 PM 93.1°F33.9°C 33.8°F1.0°C 13% 2.5 mph NW4.0 kmh NW 9.8 mph15.8 kmh 30.17 in1021.7 mb 0.00 in0.0 mm 0.00 in0.0 mm 0.00 in0.0 mm
04:26 PM 93.4°F34.1°C 35.8°F2.1°C 14% 8.8 mph SW14.2 kmh SW 10.1 mph16.3 kmh 30.17 in1021.7 mb 0.00 in0.0 mm 0.00 in0.0 mm 0.00 in0.0 mm
04:31 PM 92.7°F33.7°C 33.5°F0.8°C 13% 7.1 mph SW11.4 kmh SW 15.7 mph25.3 kmh 30.16 in1021.3 mb 0.00 in0.0 mm 0.00 in0.0 mm 0.00 in0.0 mm
04:36 PM 92.2°F33.4°C 33.1°F0.6°C 13% 8.7 mph WSW14.0 kmh WSW 15.7 mph25.3 kmh 30.16 in1021.3 mb 0.00 in0.0 mm 0.00 in0.0 mm 0.00 in0.0 mm
04:41 PM 91.8°F33.2°C 32.9°F0.5°C 13% 9.6 mph SW15.4 kmh SW 13.4 mph21.6 kmh 30.17 in1021.7 mb 0.00 in0.0 mm 0.00 in0.0 mm 0.00 in0.0 mm
04:46 PM 91.8°F33.2°C 34.7°F1.5°C 14% 7.7 mph S12.4 kmh S 13.4 mph21.6 kmh 30.17 in1021.7 mb 0.00 in0.0 mm 0.00 in0.0 mm 0.00 in0.0 mm
04:51 PM 91.8°F33.2°C 32.9°F0.5°C 13% 12.1 mph SW19.5 kmh SW 12.8 mph20.6 kmh 30.17 in1021.7 mb 0.00 in0.0 mm 0.00 in0.0 mm 0.00 in0.0 mm
04:56 PM 91.1°F32.8°C 32.3°F0.2°C 13% 10.3 mph SSW16.6 kmh SSW 12.8 mph20.6 kmh 30.17 in1021.7 mb 0.00 in0.0 mm 0.00 in0.0 mm 0.00 in0.0 mm
05:02 PM 91.1°F32.8°C 32.3°F0.2°C 13% 8.3 mph S13.4 kmh S 12.1 mph19.5 kmh 30.17 in1021.7 mb 0.00 in0.0 mm 0.00 in0.0 mm 0.00 in0.0 mm
05:07 PM 91.1°F32.8°C 34.0°F1.1°C 14% 7.6 mph SSW12.2 kmh SSW 12.1 mph19.5 kmh 30.17 in1021.7 mb 0.00 in0.0 mm 0.00 in0.0 mm 0.00 in0.0 mm
05:12 PM 91.1°F32.8°C 32.3°F0.2°C 13% 8.0 mph SW12.9 kmh SW 8.7 mph14.0 kmh 30.17 in1021.7 mb 0.00 in0.0 mm 0.00 in0.0 mm 0.00 in0.0 mm
05:17 PM 90.9°F32.7°C 32.1°F0.1°C 13% 6.4 mph SW10.3 kmh SW 8.9 mph14.3 kmh 30.17 in1021.7 mb 0.00 in0.0 mm 0.00 in0.0 mm 0.00 in0.0 mm
05:22 PM 90.9°F32.7°C 32.1°F0.1°C 13% 6.3 mph SW10.1 kmh SW 12.1 mph19.5 kmh 30.17 in1021.7 mb 0.00 in0.0 mm 0.00 in0.0 mm 0.00 in0.0 mm
05:27 PM 90.9°F32.7°C 32.1°F0.1°C 13% 9.0 mph SW14.5 kmh SW 12.1 mph19.5 kmh 30.17 in1021.7 mb 0.00 in0.0 mm 0.00 in0.0 mm 0.00 in0.0 mm
05:32 PM 90.7°F32.6°C 32.1°F0.1°C 13% 11.9 mph SW19.2 kmh SW 12.5 mph20.1 kmh 30.17 in1021.7 mb 0.00 in0.0 mm 0.00 in0.0 mm 0.00 in0.0 mm
05:37 PM 90.0°F32.2°C 29.7°F-1.3°C 12% 8.9 mph SW14.3 kmh SW 12.5 mph20.1 kmh 30.17 in1021.7 mb 0.00 in0.0 mm 0.00 in0.0 mm 0.00 in0.0 mm
05:42 PM 89.3°F31.8°C 30.9°F-0.6°C 13% 10.4 mph SW16.7 kmh SW 11.6 mph18.7 kmh 30.17 in1021.7 mb 0.00 in0.0 mm 0.00 in0.0 mm 0.00 in0.0 mm
05:46 PM 89.1°F31.7°C 30.8°F-0.7°C 13% 7.8 mph SW12.6 kmh SW 11.6 mph18.7 kmh 30.16 in1021.3 mb 0.00 in0.0 mm 0.00 in0.0 mm 0.00 in0.0 mm
05:51 PM 88.9°F31.6°C 30.6°F-0.8°C 13% 12.9 mph SW20.8 kmh SW 14.1 mph22.7 kmh 30.17 in1021.7 mb 0.00 in0.0 mm 0.00 in0.0 mm 0.00 in0.0 mm
05:56 PM 88.2°F31.2°C 30.2°F-1.0°C 13% 7.6 mph SW12.2 kmh SW 14.3 mph23.0 kmh 30.17 in1021.7 mb 0.00 in0.0 mm 0.00 in0.0 mm 0.00 in0.0 mm
06:02 PM 87.8°F31.0°C 29.9°F-1.2°C 13% 6.3 mph SW10.1 kmh SW 14.3 mph23.0 kmh 30.17 in1021.7 mb 0.00 in0.0 mm 0.00 in0.0 mm 0.00 in0.0 mm
06:07 PM 88.0°F31.1°C 31.7°F-0.2°C 14% 9.1 mph SW14.6 kmh SW 9.8 mph15.8 kmh 30.17 in1021.7 mb 0.00 in0.0 mm 0.00 in0.0 mm 0.00 in0.0 mm
06:12 PM 87.8°F31.0°C 33.3°F0.7°C 15% 9.3 mph SW15.0 kmh SW 11.0 mph17.7 kmh 30.17 in1021.7 mb 0.00 in0.0 mm 0.00 in0.0 mm 0.00 in0.0 mm
06:17 PM 87.5°F30.8°C 33.0°F0.6°C 15% 5.6 mph SW9.0 kmh SW 11.0 mph17.7 kmh 30.17 in1021.7 mb 0.00 in0.0 mm 0.00 in0.0 mm 0.00 in0.0 mm
06:22 PM 87.5°F30.8°C 33.0°F0.6°C 15% 5.7 mph SW9.2 kmh SW 9.2 mph14.8 kmh 30.17 in1021.7 mb 0.00 in0.0 mm 0.00 in0.0 mm 0.00 in0.0 mm
06:27 PM 87.1°F30.6°C 32.7°F0.4°C 15% 5.6 mph SW9.0 kmh SW 7.2 mph11.6 kmh 30.17 in1021.7 mb 0.00 in0.0 mm 0.00 in0.0 mm 0.00 in0.0 mm
06:32 PM 86.4°F30.2°C 32.0°F0.0°C 15% 5.7 mph SW9.2 kmh SW 11.0 mph17.7 kmh 30.17 in1021.7 mb 0.00 in0.0 mm 0.00 in0.0 mm 0.00 in0.0 mm
06:37 PM 85.9°F29.9°C 29.9°F-1.2°C 14% 6.4 mph SW10.3 kmh SW 11.0 mph17.7 kmh 30.17 in1021.7 mb 0.00 in0.0 mm 0.00 in0.0 mm 0.00 in0.0 mm
06:42 PM 85.3°F29.6°C 31.2°F-0.4°C 15% 6.6 mph SW10.6 kmh SW 10.3 mph16.6 kmh 30.17 in1021.7 mb 0.00 in0.0 mm 0.00 in0.0 mm 0.00 in0.0 mm
06:47 PM 85.0°F29.4°C 30.9°F-0.6°C 15% 6.6 mph SW10.6 kmh SW 9.4 mph15.1 kmh 30.17 in1021.7 mb 0.00 in0.0 mm 0.00 in0.0 mm 0.00 in0.0 mm
06:52 PM 84.6°F29.2°C 30.6°F-0.8°C 15% 4.9 mph SW7.9 kmh SW 7.2 mph11.6 kmh 30.17 in1021.7 mb 0.00 in0.0 mm 0.00 in0.0 mm 0.00 in0.0 mm
06:57 PM 83.9°F28.8°C 30.1°F-1.1°C 15% 5.1 mph SW8.2 kmh SW 6.9 mph11.1 kmh 30.17 in1021.7 mb 0.00 in0.0 mm 0.00 in0.0 mm 0.00 in0.0 mm
07:02 PM 83.3°F28.5°C 29.6°F-1.3°C 15% 4.8 mph SW7.7 kmh SW 5.8 mph9.3 kmh 30.17 in1021.7 mb 0.00 in0.0 mm 0.00 in0.0 mm 0.00 in0.0 mm
07:08 PM 82.6°F28.1°C 29.1°F-1.6°C 15% 4.8 mph SW7.7 kmh SW 5.1 mph8.2 kmh 30.17 in1021.7 mb 0.00 in0.0 mm 0.00 in0.0 mm 0.00 in0.0 mm
07:13 PM 81.7°F27.6°C 28.5°F-1.9°C 15% 6.3 mph SW10.1 kmh SW 6.9 mph11.1 kmh 30.17 in1021.7 mb 0.00 in0.0 mm 0.00 in0.0 mm 0.00 in0.0 mm
07:18 PM 80.8°F27.1°C 29.3°F-1.5°C 16% 4.3 mph SW6.9 kmh SW 6.9 mph11.1 kmh 30.18 in1022.0 mb 0.00 in0.0 mm 0.00 in0.0 mm 0.00 in0.0 mm
07:23 PM 80.1°F26.7°C 28.8°F-1.8°C 16% 4.6 mph SW7.4 kmh SW 5.8 mph9.3 kmh 30.18 in1022.0 mb 0.00 in0.0 mm 0.00 in0.0 mm 0.00 in0.0 mm
07:29 PM 79.2°F26.2°C 28.0°F-2.2°C 16% 3.7 mph SW6.0 kmh SW 4.9 mph7.9 kmh 30.18 in1022.0 mb 0.00 in0.0 mm 0.00 in0.0 mm 0.00 in0.0 mm
07:34 PM 78.5°F25.8°C 27.5°F-2.5°C 16% 3.9 mph WSW6.3 kmh WSW 4.3 mph6.9 kmh 30.18 in1022.0 mb 0.00 in0.0 mm 0.00 in0.0 mm 0.00 in0.0 mm
07:39 PM 77.6°F25.3°C 28.4°F-2.0°C 17% 3.6 mph WSW5.8 kmh WSW 4.0 mph6.4 kmh 30.18 in1022.0 mb 0.00 in0.0 mm 0.00 in0.0 mm 0.00 in0.0 mm
07:43 PM 76.7°F24.8°C 27.7°F-2.4°C 17% 3.2 mph WSW5.1 kmh WSW 4.0 mph6.4 kmh 30.18 in1022.0 mb 0.00 in0.0 mm 0.00 in0.0 mm 0.00 in0.0 mm
07:48 PM 76.0°F24.4°C 27.1°F-2.7°C 17% 3.5 mph SW5.6 kmh SW 4.3 mph6.9 kmh 30.19 in1022.4 mb 0.00 in0.0 mm 0.00 in0.0 mm 0.00 in0.0 mm
07:53 PM 75.2°F24.0°C 26.6°F-3.0°C 17% 3.4 mph WSW5.5 kmh WSW 4.3 mph6.9 kmh 30.19 in1022.4 mb 0.00 in0.0 mm 0.00 in0.0 mm 0.00 in0.0 mm
07:58 PM 74.5°F23.6°C 26.0°F-3.3°C 17% 4.7 mph WSW7.6 kmh WSW 4.7 mph7.6 kmh 30.19 in1022.4 mb 0.00 in0.0 mm 0.00 in0.0 mm 0.00 in0.0 mm
08:04 PM 73.8°F23.2°C 27.1°F-2.7°C 18% 2.4 mph SW3.9 kmh SW 4.7 mph7.6 kmh 30.19 in1022.4 mb 0.00 in0.0 mm 0.00 in0.0 mm 0.00 in0.0 mm
08:09 PM 73.4°F23.0°C 26.8°F-2.9°C 18% 2.2 mph WSW3.5 kmh WSW 3.8 mph6.1 kmh 30.20 in1022.7 mb 0.00 in0.0 mm 0.00 in0.0 mm 0.00 in0.0 mm
08:14 PM 73.1°F22.8°C 26.5°F-3.1°C 18% 0.8 mph WNW1.3 kmh WNW 2.5 mph4.0 kmh 30.20 in1022.7 mb 0.00 in0.0 mm 0.00 in0.0 mm 0.00 in0.0 mm
08:19 PM 72.7°F22.6°C 26.2°F-3.2°C 18% 1.0 mph W1.6 kmh W 2.0 mph3.2 kmh 30.20 in1022.7 mb 0.00 in0.0 mm 0.00 in0.0 mm 0.00 in0.0 mm
08:24 PM 72.5°F22.5°C 26.0°F-3.3°C 18% 1.4 mph W2.3 kmh W 1.8 mph2.9 kmh 30.20 in1022.7 mb 0.00 in0.0 mm 0.00 in0.0 mm 0.00 in0.0 mm
08:29 PM 72.2°F22.3°C 25.7°F-3.5°C 18% 1.2 mph W1.9 kmh W 1.8 mph2.9 kmh 30.20 in1022.7 mb 0.00 in0.0 mm 0.00 in0.0 mm 0.00 in0.0 mm
08:34 PM 71.8°F22.1°C 25.4°F-3.7°C 18% 1.0 mph W1.6 kmh W 1.8 mph2.9 kmh 30.20 in1022.7 mb 0.00 in0.0 mm 0.00 in0.0 mm 0.00 in0.0 mm
08:39 PM 71.5°F21.9°C 25.0°F-3.9°C 18% 4.1 mph 6.6 kmh 4.7 mph7.6 kmh 30.20 in1022.7 mb 0.00 in0.0 mm 0.00 in0.0 mm 0.00 in0.0 mm
08:44 PM 70.7°F21.5°C 24.5°F-4.2°C 18% 5.1 mph 8.2 kmh 6.5 mph10.5 kmh 30.20 in1022.7 mb 0.00 in0.0 mm 0.00 in0.0 mm 0.00 in0.0 mm
08:49 PM 70.0°F21.1°C 24.0°F-4.4°C 18% 5.3 mph 8.5 kmh 6.5 mph10.5 kmh 30.21 in1023.0 mb 0.00 in0.0 mm 0.00 in0.0 mm 0.00 in0.0 mm
08:54 PM 69.5°F20.8°C 23.5°F-4.7°C 18% 3.6 mph 5.8 kmh 6.0 mph9.7 kmh 30.21 in1023.0 mb 0.00 in0.0 mm 0.00 in0.0 mm 0.00 in0.0 mm
09:00 PM 69.1°F20.6°C 23.2°F-4.9°C 18% 2.8 mph 4.5 kmh 5.1 mph8.2 kmh 30.21 in1023.0 mb 0.00 in0.0 mm 0.00 in0.0 mm 0.00 in0.0 mm
09:05 PM 68.9°F20.5°C 24.7°F-4.1°C 19% 1.4 mph 2.3 kmh 3.4 mph5.5 kmh 30.21 in1023.0 mb 0.00 in0.0 mm 0.00 in0.0 mm 0.00 in0.0 mm
09:10 PM 68.8°F20.4°C 24.6°F-4.1°C 19% 1.7 mph NNW2.7 kmh NNW 2.7 mph4.3 kmh 30.21 in1023.0 mb 0.00 in0.0 mm 0.00 in0.0 mm 0.00 in0.0 mm
09:15 PM 68.8°F20.4°C 24.6°F-4.1°C 19% 2.3 mph 3.7 kmh 2.9 mph4.7 kmh 30.21 in1023.0 mb 0.00 in0.0 mm 0.00 in0.0 mm 0.00 in0.0 mm
09:20 PM 68.4°F20.2°C 24.2°F-4.3°C 19% 2.0 mph 3.2 kmh 2.9 mph4.7 kmh 30.21 in1023.0 mb 0.00 in0.0 mm 0.00 in0.0 mm 0.00 in0.0 mm
09:25 PM 68.4°F20.2°C 24.2°F-4.3°C 19% 1.7 mph 2.7 kmh 2.5 mph4.0 kmh 30.21 in1023.0 mb 0.00 in0.0 mm 0.00 in0.0 mm 0.00 in0.0 mm
09:30 PM 68.2°F20.1°C 24.1°F-4.4°C 19% 3.4 mph 5.5 kmh 3.8 mph6.1 kmh 30.21 in1023.0 mb 0.00 in0.0 mm 0.00 in0.0 mm 0.00 in0.0 mm
09:35 PM 67.3°F19.6°C 23.3°F-4.8°C 19% 6.4 mph N10.3 kmh N 6.9 mph11.1 kmh 30.21 in1023.0 mb 0.00 in0.0 mm 0.00 in0.0 mm 0.00 in0.0 mm
09:40 PM 66.2°F19.0°C 24.9°F-3.9°C 21% 8.6 mph 13.8 kmh 11.0 mph17.7 kmh 30.21 in1023.0 mb 0.00 in0.0 mm 0.00 in0.0 mm 0.00 in0.0 mm
09:45 PM 65.9°F18.8°C 24.7°F-4.1°C 21% 11.6 mph N18.7 kmh N 11.9 mph19.2 kmh 30.21 in1023.0 mb 0.00 in0.0 mm 0.00 in0.0 mm 0.00 in0.0 mm
09:50 PM 66.6°F19.2°C 25.3°F-3.7°C 21% 9.8 mph NNE15.8 kmh NNE 11.9 mph19.2 kmh 30.21 in1023.0 mb 0.00 in0.0 mm 0.00 in0.0 mm 0.00 in0.0 mm
09:55 PM 66.8°F19.3°C 25.5°F-3.6°C 21% 5.7 mph NNE9.2 kmh NNE 10.7 mph17.2 kmh 30.21 in1023.0 mb 0.00 in0.0 mm 0.00 in0.0 mm 0.00 in0.0 mm
10:01 PM 67.3°F19.6°C 25.9°F-3.4°C 21% 3.5 mph S5.6 kmh S 8.9 mph14.3 kmh 30.22 in1023.4 mb 0.00 in0.0 mm 0.00 in0.0 mm 0.00 in0.0 mm
10:06 PM 66.4°F19.1°C 25.1°F-3.8°C 21% 2.0 mph SW3.2 kmh SW 5.1 mph8.2 kmh 30.22 in1023.4 mb 0.00 in0.0 mm 0.00 in0.0 mm 0.00 in0.0 mm
10:11 PM 65.2°F18.4°C 24.0°F-4.4°C 21% 1.8 mph SE2.9 kmh SE 2.5 mph4.0 kmh 30.22 in1023.4 mb 0.00 in0.0 mm 0.00 in0.0 mm 0.00 in0.0 mm
10:16 PM 64.1°F17.8°C 24.2°F-4.3°C 22% 4.3 mph ESE6.9 kmh ESE 4.7 mph7.6 kmh 30.22 in1023.4 mb 0.00 in0.0 mm 0.00 in0.0 mm 0.00 in0.0 mm
10:20 PM 63.2°F17.3°C 24.4°F-4.2°C 23% 6.3 mph ESE10.1 kmh ESE 6.3 mph10.1 kmh 30.22 in1023.4 mb 0.00 in0.0 mm 0.00 in0.0 mm 0.00 in0.0 mm
10:25 PM 62.5°F16.9°C 24.9°F-3.9°C 24% 4.3 mph E6.9 kmh E 6.3 mph10.1 kmh 30.22 in1023.4 mb 0.00 in0.0 mm 0.00 in0.0 mm 0.00 in0.0 mm
10:30 PM 62.1°F16.7°C 25.5°F-3.6°C 25% 4.8 mph E7.7 kmh E 6.3 mph10.1 kmh 30.22 in1023.4 mb 0.00 in0.0 mm 0.00 in0.0 mm 0.00 in0.0 mm
10:35 PM 61.7°F16.5°C 25.1°F-3.8°C 25% 5.1 mph E8.2 kmh E 6.3 mph10.1 kmh 30.22 in1023.4 mb 0.00 in0.0 mm 0.00 in0.0 mm 0.00 in0.0 mm
10:40 PM 61.4°F16.3°C 24.8°F-4.0°C 25% 2.3 mph NE3.7 kmh NE 5.8 mph9.3 kmh 30.22 in1023.4 mb 0.00 in0.0 mm 0.00 in0.0 mm 0.00 in0.0 mm
10:45 PM 61.2°F16.2°C 23.8°F-4.6°C 24% 3.8 mph NE6.1 kmh NE 4.7 mph7.6 kmh 30.22 in1023.4 mb 0.00 in0.0 mm 0.00 in0.0 mm 0.00 in0.0 mm
10:50 PM 61.4°F16.3°C 23.9°F-4.5°C 24% 4.7 mph NE7.6 kmh NE 4.9 mph7.9 kmh 30.22 in1023.4 mb 0.00 in0.0 mm 0.00 in0.0 mm 0.00 in0.0 mm
10:55 PM 61.7°F16.5°C 25.1°F-3.8°C 25% 4.9 mph NE7.9 kmh NE 5.4 mph8.7 kmh 30.22 in1023.4 mb 0.00 in0.0 mm 0.00 in0.0 mm 0.00 in0.0 mm
11:01 PM 61.6°F16.4°C 24.0°F-4.4°C 24% 2.2 mph W3.5 kmh W 5.4 mph8.7 kmh 30.23 in1023.7 mb 0.00 in0.0 mm 0.00 in0.0 mm 0.00 in0.0 mm
11:06 PM 60.8°F16.0°C 23.4°F-4.8°C 24% 0.6 mph NNW1.0 kmh NNW 3.6 mph5.8 kmh 30.23 in1023.7 mb 0.00 in0.0 mm 0.00 in0.0 mm 0.00 in0.0 mm
11:11 PM 60.5°F15.8°C 23.1°F-4.9°C 24% 0.4 mph NNW0.6 kmh NNW 3.1 mph5.0 kmh 30.23 in1023.7 mb 0.00 in0.0 mm 0.00 in0.0 mm 0.00 in0.0 mm
11:16 PM 60.5°F15.8°C 23.1°F-4.9°C 24% 3.6 mph 5.8 kmh 3.6 mph5.8 kmh 30.23 in1023.7 mb 0.00 in0.0 mm 0.00 in0.0 mm 0.00 in0.0 mm
11:21 PM 60.3°F15.7°C 23.0°F-5.0°C 24% 3.8 mph 6.1 kmh 5.1 mph8.2 kmh 30.23 in1023.7 mb 0.00 in0.0 mm 0.00 in0.0 mm 0.00 in0.0 mm
11:26 PM 60.5°F15.8°C 23.1°F-4.9°C 24% 2.9 mph NE4.7 kmh NE 5.1 mph8.2 kmh 30.23 in1023.7 mb 0.00 in0.0 mm 0.00 in0.0 mm 0.00 in0.0 mm
11:31 PM 60.3°F15.7°C 24.0°F-4.4°C 25% 1.0 mph ENE1.6 kmh ENE 4.0 mph6.4 kmh 30.23 in1023.7 mb 0.00 in0.0 mm 0.00 in0.0 mm 0.00 in0.0 mm
11:36 PM 59.9°F15.5°C 22.7°F-5.2°C 24% 2.5 mph NE4.0 kmh NE 4.5 mph7.2 kmh 30.23 in1023.7 mb 0.00 in0.0 mm 0.00 in0.0 mm 0.00 in0.0 mm
11:41 PM 59.4°F15.2°C 22.2°F-5.4°C 24% 2.3 mph ENE3.7 kmh ENE 4.5 mph7.2 kmh 30.23 in1023.7 mb 0.00 in0.0 mm 0.00 in0.0 mm 0.00 in0.0 mm
11:46 PM 59.0°F15.0°C 21.9°F-5.6°C 24% 3.2 mph NE5.1 kmh NE 4.3 mph6.9 kmh 30.23 in1023.7 mb 0.00 in0.0 mm 0.00 in0.0 mm 0.00 in0.0 mm
11:51 PM 59.0°F15.0°C 22.9°F-5.1°C 25% 1.8 mph NE2.9 kmh NE 4.3 mph6.9 kmh 30.23 in1023.7 mb 0.00 in0.0 mm 0.00 in0.0 mm 0.00 in0.0 mm
11:56 PM 59.0°F15.0°C 22.9°F-5.1°C 25% 1.4 mph 2.3 kmh 2.0 mph3.2 kmh 30.23 in1023.7 mb 0.00 in0.0 mm 0.00 in0.0 mm 0.00 in0.0 mm